EST,Max TemperatureF,Mean TemperatureF,Min TemperatureF,Max Dew PointF,MeanDew PointF,Min DewpointF,Max Humidity, Mean Humidity, Min Humidity, Max Sea Level PressureIn, Mean Sea Level PressureIn, Min Sea Level PressureIn, Max VisibilityMiles, Mean VisibilityMiles, Min VisibilityMiles, Max Wind SpeedMPH, Mean Wind SpeedMPH, Max Gust SpeedMPH,PrecipitationIn, CloudCover, Events, WindDirDegrees
2011-11-1,51,48,44,43,39,35,82,70,63,30.36,30.28,30.24,10,10,10,23,12,30,0.00,5,,46
2011-11-2,54,46,36,40,38,35,97,72,57,30.35,30.30,30.26,10,10,10,20,14,25,0.00,1,,26
2011-11-3,59,45,33,50,43,34,100,85,65,30.24,30.10,29.92,10,9,2,17,6,,0.00,0,,235
2011-11-4,53,48,44,50,39,26,89,68,44,30.16,29.98,29.87,10,10,9,25,15,32,0.00,3,,340
2011-11-5,48,42,33,32,30,28,82,61,52,30.48,30.35,30.17,10,10,10,23,18,33,0.00,4,,16
2011-11-6,52,40,28,44,34,26,89,72,52,30.53,30.47,30.39,10,10,10,15,5,,0.00,0,,226
2011-11-7,59,54,50,50,47,44,93,76,64,30.36,30.29,30.23,10,10,5,26,16,31,0.00,3,,245
2011-11-8,64,54,45,53,50,45,100,89,52,30.26,30.24,30.21,10,6,0,9,6,,0.00,0,Fog,232
2011-11-9,61,52,44,54,49,44,100,91,64,30.25,30.20,30.08,10,5,0,9,4,,0.00,2,Fog,147
2011-11-10,61,58,55,60,56,54,100,96,83,30.06,29.70,29.48,10,5,0,24,12,31,0.00,7,Fog-Rain,144
2011-11-11,57,50,44,58,42,27,100,76,46,29.91,29.54,29.40,10,10,3,30,14,40,0.03,5,Rain,296
2011-11-12,54,48,43,45,35,26,72,57,47,30.15,30.08,29.93,10,10,10,29,19,39,0.00,1,,255
2011-11-13,60,55,50,54,50,44,92,81,72,30.22,30.14,30.05,10,9,5,20,12,26,0.00,0,,209
2011-11-14,61,58,55,55,53,51,93,84,78,30.04,29.93,29.82,10,8,6,24,18,32,0.00,0,,215
2011-11-15,61,58,55,56,55,53,93,86,81,29.98,29.85,29.78,10,7,4,24,17,32,0.00,4,Rain,241
2011-11-16,59,56,53,58,55,51,100,97,90,29.98,29.80,29.66,10,3,0,17,6,23,0.02,8,Fog-Rain,166
2011-11-17,54,46,39,54,44,34,100,88,73,29.90,29.74,29.64,10,10,6,25,13,37,0.15,8,Rain,335
2011-11-18,45,38,30,31,25,23,76,57,42,30.43,30.24,29.91,10,10,10,24,15,33,0.00,0,,293
2011-11-19,54,43,32,49,40,27,86,69,59,30.45,30.38,30.29,10,10,10,24,15,33,0.00,3,,223
2011-11-20,62,58,54,53,51,49,89,81,67,30.27,30.13,30.07,10,8,6,25,19,34,0.00,4,,230
2011-11-21,55,46,34,52,40,30,90,78,71,30.35,30.24,30.08,10,10,9,22,13,28,0.00,5,Rain,23
2011-11-22,48,40,32,44,35,29,93,76,56,30.40,30.34,30.18,10,10,7,13,6,16,0.08,1,Rain,72
2011-11-23,60,50,39,59,51,36,100,94,81,30.11,29.68,29.46,10,5,1,33,21,44,1.54,8,Rain,187
2011-11-24,43,38,33,36,32,30,92,76,65,30.18,30.08,29.86,10,10,10,25,17,39,0.00,4,,348
2011-11-25,55,48,41,49,46,37,97,85,69,30.15,30.10,30.05,10,10,6,20,11,24,0.00,0,Fog,241
2011-11-26,60,52,44,48,46,42,100,87,51,30.23,30.18,30.09,10,6,0,14,8,,0.00,0,Fog,229
2011-11-27,57,49,41,52,47,41,100,95,81,30.24,30.21,30.18,10,5,0,16,5,,0.00,0,Fog,166
2011-11-28,59,56,52,53,51,50,97,88,72,30.20,30.17,30.14,10,10,9,17,12,24,0.00,1,,206
2011-11-29,60,58,55,55,53,51,97,89,72,30.16,30.03,29.77,10,10,7,21,10,25,0.00,6,,132
2011-11-30,57,54,48,57,49,34,100,87,58,29.85,29.73,29.68,10,7,2,24,15,31,0.44,7,Rain,234